Time;durP1;ratioP1;P1;durP2;ratioP2;P2;SDS_P1;SDS_P2;PMS_P1;PMS_P2;Temp;Humidity;BMP_temperature;BMP_pressure;BME280_temperature;BME280_humidity;BME280_pressure;Samples;Min_cycle;Max_cycle;Signal;HPM_P1;HPM_P2
2023/12/17 00:01:53;;;;;;;19.60;12.90;;;7.50;99.90;;;;;;5139772;27;20490;-67
2023/12/17 00:04:20;;;;;;;16.53;12.00;;;7.50;99.90;;;;;;5139608;27;20553;-67
2023/12/17 00:06:47;;;;;;;17.83;12.90;;;7.50;99.90;;;;;;5138279;27;20541;-67
2023/12/17 00:09:14;;;;;;;19.20;13.73;;;7.50;99.90;;;;;;5139497;27;20479;-67
2023/12/17 00:11:43;;;;;;;17.40;12.07;;;7.50;99.90;;;;;;5139792;27;20501;-67
2023/12/17 00:14:13;;;;;;;17.23;12.73;;;7.50;99.90;;;;;;5139673;27;20804;-67
2023/12/17 00:16:40;;;;;;;16.60;13.30;;;7.50;99.90;;;;;;5139577;27;20466;-68
2023/12/17 00:19:07;;;;;;;15.50;11.90;;;7.50;99.90;;;;;;5139448;27;20791;-70
2023/12/17 00:21:35;;;;;;;16.17;13.27;;;7.50;99.90;;;;;;5139102;27;20558;-70
2023/12/17 00:24:02;;;;;;;16.33;12.43;;;7.50;99.90;;;;;;5139118;27;20437;-69
2023/12/17 00:26:29;;;;;;;16.30;14.30;;;7.60;99.90;;;;;;5138669;27;20546;-69
2023/12/17 00:28:58;;;;;;;16.90;12.90;;;7.60;99.90;;;;;;5138821;27;20898;-70
2023/12/17 00:31:25;;;;;;;15.47;13.00;;;7.60;99.90;;;;;;5139039;27;20454;-69
2023/12/17 00:33:52;;;;;;;19.33;12.80;;;7.60;99.90;;;;;;5139265;27;20508;-68
2023/12/17 00:36:19;;;;;;;16.57;13.80;;;7.60;99.90;;;;;;5138652;27;20490;-69
2023/12/17 00:38:47;;;;;;;22.63;15.47;;;7.60;99.90;;;;;;5138677;27;20545;-69
2023/12/17 00:41:14;;;;;;;16.77;14.27;;;7.60;99.90;;;;;;5138622;27;20593;-68
2023/12/17 00:43:43;;;;;;;15.50;13.40;;;7.70;99.90;;;;;;5138794;27;20472;-68
2023/12/17 00:46:12;;;;;;;16.33;13.10;;;7.70;99.90;;;;;;5138768;27;20465;-68
2023/12/17 00:48:39;;;;;;;18.80;14.40;;;7.70;99.90;;;;;;5138799;27;20459;-68
2023/12/17 00:51:11;;;;;;;19.70;16.53;;;7.60;99.90;;;;;;5138419;27;20455;-68
2023/12/17 00:53:38;;;;;;;20.17;15.73;;;7.70;99.90;;;;;;5138905;27;20469;-68
2023/12/17 00:56:06;;;;;;;18.43;14.70;;;7.60;99.90;;;;;;5138618;27;20497;-68
2023/12/17 00:58:33;;;;;;;16.30;13.60;;;7.60;99.90;;;;;;5138244;27;20459;-68
2023/12/17 01:01:01;;;;;;;17.50;14.47;;;7.60;99.90;;;;;;5138299;27;20466;-67
2023/12/17 01:03:30;;;;;;;15.37;13.40;;;7.70;99.90;;;;;;5138665;27;20458;-67
2023/12/17 01:05:57;;;;;;;14.33;12.83;;;7.60;99.90;;;;;;5138551;27;20794;-67
2023/12/17 01:08:24;;;;;;;16.80;13.97;;;7.60;99.90;;;;;;5137845;27;20496;-68
2023/12/17 01:10:52;;;;;;;17.17;14.20;;;7.60;99.90;;;;;;5138416;27;20487;-68
2023/12/17 01:13:19;;;;;;;17.07;13.60;;;7.60;99.90;;;;;;5138436;27;20498;-68
2023/12/17 01:15:46;;;;;;;18.50;15.57;;;7.60;99.90;;;;;;5138081;27;20562;-67
2023/12/17 01:18:13;;;;;;;18.63;15.00;;;7.50;99.90;;;;;;5138749;27;20482;-67
2023/12/17 01:20:42;;;;;;;17.47;15.20;;;7.50;99.90;;;;;;5137949;27;20462;-68
2023/12/17 01:23:09;;;;;;;17.70;14.23;;;7.60;99.90;;;;;;5137707;27;20490;-67
2023/12/17 01:25:37;;;;;;;19.93;14.97;;;7.50;99.90;;;;;;5138286;28;20819;-68
2023/12/17 01:28:04;;;;;;;18.80;14.40;;;7.50;99.90;;;;;;5137989;28;20461;-67
2023/12/17 01:30:31;;;;;;;18.80;13.50;;;7.50;99.90;;;;;;5138043;28;20491;-67
2023/12/17 01:32:58;;;;;;;19.10;14.00;;;7.50;99.90;;;;;;5138088;28;20869;-67
2023/12/17 01:35:25;;;;;;;15.00;13.03;;;7.40;99.90;;;;;;5138302;27;20515;-67
2023/12/17 01:37:54;;;;;;;18.10;14.00;;;7.50;99.90;;;;;;5138080;28;20461;-68
2023/12/17 01:40:21;;;;;;;15.00;12.50;;;7.50;99.90;;;;;;5137663;28;20454;-67
2023/12/17 01:42:48;;;;;;;15.70;12.93;;;7.50;99.90;;;;;;5137617;28;21022;-68
2023/12/17 01:45:16;;;;;;;16.33;12.97;;;7.40;99.90;;;;;;5138113;28;20726;-67
2023/12/17 01:47:43;;;;;;;15.40;12.83;;;7.40;99.90;;;;;;5138146;27;20459;-67
2023/12/17 01:50:10;;;;;;;16.60;13.37;;;7.50;99.90;;;;;;5138130;28;20498;-67
2023/12/17 01:52:39;;;;;;;15.83;13.10;;;7.50;99.90;;;;;;5137912;28;21005;-67
2023/12/17 01:55:09;;;;;;;15.73;13.20;;;7.50;99.90;;;;;;5138038;28;20503;-68
2023/12/17 01:57:37;;;;;;;16.00;13.37;;;7.40;99.90;;;;;;5138029;28;20458;-68
2023/12/17 02:00:05;;;;;;;14.03;12.07;;;7.50;99.90;;;;;;5138179;27;20887;-68
2023/12/17 02:02:32;;;;;;;15.50;12.77;;;7.50;99.90;;;;;;5137268;27;20490;-68
2023/12/17 02:05:01;;;;;;;15.90;13.90;;;7.50;99.90;;;;;;5137603;28;20493;-68
2023/12/17 02:07:28;;;;;;;14.90;13.40;;;7.50;99.90;;;;;;5137446;28;20466;-68
2023/12/17 02:09:56;;;;;;;16.23;14.10;;;7.50;99.90;;;;;;5137500;27;20459;-68
2023/12/17 02:12:29;;;;;;;16.03;13.40;;;7.50;99.90;;;;;;5137841;27;20872;-68
2023/12/17 02:14:56;;;;;;;19.97;13.63;;;7.50;99.90;;;;;;5137816;27;20461;-68
2023/12/17 02:17:27;;;;;;;17.50;13.83;;;7.50;99.90;;;;;;5137713;28;20500;-68
2023/12/17 02:19:55;;;;;;;17.97;14.50;;;7.50;99.90;;;;;;5138051;27;20494;-68
2023/12/17 02:22:23;;;;;;;15.83;13.10;;;7.50;99.90;;;;;;5137840;28;20593;-67
2023/12/17 02:24:53;;;;;;;14.93;12.93;;;7.50;99.90;;;;;;5137282;28;20458;-67
2023/12/17 02:27:21;;;;;;;14.47;12.97;;;7.50;99.90;;;;;;5137619;27;20456;-68
2023/12/17 02:29:49;;;;;;;14.53;12.10;;;7.50;99.90;;;;;;5140483;27;20458;-67
2023/12/17 02:32:17;;;;;;;14.70;12.17;;;7.50;99.90;;;;;;5141096;27;20887;-68
2023/12/17 02:34:43;;;;;;;14.27;12.17;;;7.50;99.90;;;;;;5141372;27;20557;-68
2023/12/17 02:37:10;;;;;;;14.57;13.07;;;7.60;99.90;;;;;;5141139;27;20462;-67
2023/12/17 02:39:37;;;;;;;18.07;13.63;;;7.60;99.90;;;;;;5141656;27;20954;-68
2023/12/17 02:42:06;;;;;;;15.80;12.17;;;7.60;99.90;;;;;;5141399;27;20529;-68
2023/12/17 02:44:34;;;;;;;16.07;14.27;;;7.60;99.90;;;;;;5140979;27;20804;-68
2023/12/17 02:47:01;;;;;;;15.80;12.80;;;7.60;99.90;;;;;;5141117;27;20459;-67
2023/12/17 02:49:29;;;;;;;15.57;13.73;;;7.60;99.90;;;;;;5141320;27;20458;-67
2023/12/17 02:51:56;;;;;;;17.13;14.03;;;7.60;99.90;;;;;;5140775;27;20481;-67
2023/12/17 02:54:24;;;;;;;17.67;13.60;;;7.50;99.90;;;;;;5140299;27;20860;-67
2023/12/17 02:56:52;;;;;;;16.20;13.33;;;7.50;99.90;;;;;;5140619;27;20825;-68
2023/12/17 02:59:20;;;;;;;17.33;12.80;;;7.50;99.90;;;;;;5140321;27;20462;-67
2023/12/17 03:01:47;;;;;;;16.13;13.40;;;7.50;99.90;;;;;;5140690;27;20482;-67
2023/12/17 03:04:15;;;;;;;15.30;12.80;;;7.50;99.90;;;;;;5140964;27;20480;-67
2023/12/17 03:06:42;;;;;;;17.57;13.73;;;7.50;99.90;;;;;;5140758;27;20552;-67
2023/12/17 03:09:10;;;;;;;14.57;12.53;;;7.50;99.90;;;;;;5140543;27;20511;-67
2023/12/17 03:11:38;;;;;;;14.77;13.20;;;7.50;99.90;;;;;;5140731;27;20458;-67
2023/12/17 03:14:05;;;;;;;16.67;13.93;;;7.50;99.90;;;;;;5141088;27;20876;-67
2023/12/17 03:16:34;;;;;;;17.23;13.90;;;7.50;99.90;;;;;;5140370;27;20943;-67
2023/12/17 03:19:01;;;;;;;17.37;14.57;;;7.50;99.90;;;;;;5140389;27;20462;-68
2023/12/17 03:21:29;;;;;;;18.17;15.10;;;7.50;99.90;;;;;;5140532;27;20457;-67
2023/12/17 03:23:56;;;;;;;20.27;15.40;;;7.50;99.90;;;;;;5140614;27;20454;-68
2023/12/17 03:26:23;;;;;;;18.57;14.20;;;7.40;99.90;;;;;;5140474;27;20486;-68
2023/12/17 03:28:50;;;;;;;17.97;15.17;;;7.40;99.90;;;;;;5139957;27;20545;-67
2023/12/17 03:31:17;;;;;;;17.10;14.27;;;7.40;99.90;;;;;;5140461;27;20429;-67
2023/12/17 03:33:47;;;;;;;15.07;13.23;;;7.50;99.90;;;;;;5140111;27;20455;-67
2023/12/17 03:36:15;;;;;;;18.80;14.80;;;7.50;99.90;;;;;;5140349;27;20455;-68
2023/12/17 03:38:43;;;;;;;18.93;13.50;;;7.50;99.90;;;;;;5139625;27;20459;-67
2023/12/17 03:41:21;;;;;;;17.60;14.17;;;7.40;99.90;;;;;;5140172;27;20502;-67
2023/12/17 03:43:50;;;;;;;16.93;14.47;;;7.50;99.90;;;;;;5140080;27;20938;-67
2023/12/17 03:46:17;;;;;;;18.60;14.03;;;7.40;99.90;;;;;;5139442;27;20455;-67
2023/12/17 03:48:46;;;;;;;17.50;15.10;;;7.40;99.90;;;;;;5139833;27;20838;-67
2023/12/17 03:51:13;;;;;;;18.07;14.20;;;7.50;99.90;;;;;;5140039;27;20553;-67
2023/12/17 03:53:41;;;;;;;15.33;13.67;;;7.40;99.90;;;;;;5140277;27;20489;-68
2023/12/17 03:56:09;;;;;;;16.47;13.80;;;7.40;99.90;;;;;;5140319;27;20486;-67
2023/12/17 03:58:37;;;;;;;15.20;13.50;;;7.50;99.90;;;;;;5139343;27;20458;-67
2023/12/17 04:01:05;;;;;;;16.50;14.67;;;7.50;99.90;;;;;;5139303;27;20912;-67
2023/12/17 04:03:32;;;;;;;17.80;15.53;;;7.50;99.90;;;;;;5139911;27;20522;-67
2023/12/17 04:06:03;;;;;;;16.90;14.87;;;7.40;99.90;;;;;;5139750;27;20493;-67
2023/12/17 04:08:30;;;;;;;17.80;14.40;;;7.50;99.90;;;;;;5139378;27;20911;-67
2023/12/17 04:10:57;;;;;;;16.83;14.53;;;7.40;99.90;;;;;;5139424;27;20825;-67
2023/12/17 04:13:24;;;;;;;17.90;14.20;;;7.40;99.90;;;;;;5139858;27;20490;-67
2023/12/17 04:15:52;;;;;;;16.97;13.70;;;7.40;99.90;;;;;;5139473;27;20459;-67
2023/12/17 04:18:19;;;;;;;15.67;13.33;;;7.40;99.90;;;;;;5139557;27;20858;-67
2023/12/17 04:20:47;;;;;;;13.90;12.43;;;7.40;99.90;;;;;;5138731;27;20454;-67
2023/12/17 04:23:16;;;;;;;14.00;12.57;;;7.50;99.90;;;;;;5139211;27;20551;-67
2023/12/17 04:25:43;;;;;;;15.47;12.87;;;7.50;99.90;;;;;;5139186;27;20715;-67
2023/12/17 04:28:10;;;;;;;13.53;11.97;;;7.50;99.90;;;;;;5139509;27;20561;-67
2023/12/17 04:30:37;;;;;;;14.73;12.70;;;7.50;99.90;;;;;;5138943;27;20553;-67
2023/12/17 04:33:04;;;;;;;12.60;10.97;;;7.50;99.90;;;;;;5139322;27;20478;-68
2023/12/17 04:35:32;;;;;;;12.97;10.83;;;7.50;99.90;;;;;;5139134;27;20560;-67
2023/12/17 04:37:59;;;;;;;13.67;11.53;;;7.40;99.90;;;;;;5138495;27;20515;-67
2023/12/17 04:40:27;;;;;;;12.63;11.27;;;7.40;99.90;;;;;;5138467;27;20461;-67
2023/12/17 04:42:55;;;;;;;12.37;11.07;;;7.40;99.90;;;;;;5138825;27;20871;-67
2023/12/17 04:45:22;;;;;;;12.37;10.77;;;7.40;99.90;;;;;;5138946;27;20876;-67
2023/12/17 04:47:49;;;;;;;13.23;11.40;;;7.40;99.90;;;;;;5138958;27;20541;-67
2023/12/17 04:50:16;;;;;;;14.37;11.57;;;7.30;99.90;;;;;;5138502;27;20480;-66
2023/12/17 04:52:43;;;;;;;15.33;11.63;;;7.40;99.90;;;;;;5138055;27;20545;-67
2023/12/17 04:55:10;;;;;;;13.27;11.40;;;7.40;99.90;;;;;;5138774;27;20552;-67
2023/12/17 04:57:39;;;;;;;14.60;12.07;;;7.30;99.90;;;;;;5138763;27;20541;-67
2023/12/17 05:00:08;;;;;;;14.90;12.57;;;7.30;99.90;;;;;;5138861;27;20429;-68
2023/12/17 05:02:35;;;;;;;15.83;12.70;;;7.20;99.90;;;;;;5138213;27;20482;-66
2023/12/17 05:05:02;;;;;;;17.40;13.50;;;7.20;99.90;;;;;;5138518;27;20487;-68
2023/12/17 05:07:29;;;;;;;18.40;14.07;;;7.20;99.90;;;;;;5138118;27;20512;-66
2023/12/17 05:09:57;;;;;;;15.00;12.90;;;7.20;99.90;;;;;;5138711;27;20551;-67
2023/12/17 05:12:25;;;;;;;15.53;12.83;;;7.20;99.90;;;;;;5138167;27;20755;-67
2023/12/17 05:14:54;;;;;;;16.50;13.80;;;7.20;99.90;;;;;;5138115;27;20482;-67
2023/12/17 05:17:21;;;;;;;16.03;13.47;;;7.20;99.90;;;;;;5138510;27;20463;-67
2023/12/17 05:19:48;;;;;;;16.93;13.30;;;7.20;99.90;;;;;;5138405;27;20552;-67
2023/12/17 05:22:15;;;;;;;19.73;14.67;;;7.20;99.90;;;;;;5138031;27;20808;-67
2023/12/17 05:24:43;;;;;;;18.67;13.90;;;7.20;99.90;;;;;;5138235;28;20483;-67
2023/12/17 05:27:10;;;;;;;19.53;13.63;;;7.20;99.90;;;;;;5138266;28;20465;-67
2023/12/17 05:29:38;;;;;;;18.10;15.03;;;7.20;99.90;;;;;;5138297;28;20458;-67
2023/12/17 05:32:07;;;;;;;16.00;13.50;;;7.20;99.90;;;;;;5138504;28;20458;-67
2023/12/17 05:34:34;;;;;;;17.00;14.53;;;7.20;99.90;;;;;;5137981;28;20486;-68
2023/12/17 05:37:01;;;;;;;18.80;15.10;;;7.10;99.90;;;;;;5138043;28;20766;-68
2023/12/17 05:39:28;;;;;;;20.10;14.50;;;7.10;99.90;;;;;;5138189;27;20766;-68
2023/12/17 05:41:56;;;;;;;20.10;15.10;;;7.10;99.90;;;;;;5138382;27;20495;-67
2023/12/17 05:44:23;;;;;;;16.23;13.37;;;7.10;99.90;;;;;;5138069;28;20491;-67
2023/12/17 05:46:50;;;;;;;18.70;14.20;;;7.10;99.90;;;;;;5138001;28;20454;-67
2023/12/17 05:49:19;;;;;;;18.20;14.97;;;7.10;99.90;;;;;;5138236;28;20759;-66
2023/12/17 05:51:46;;;;;;;20.83;14.63;;;7.10;99.90;;;;;;5138061;28;20545;-68
2023/12/17 05:54:13;;;;;;;20.33;15.97;;;7.10;99.90;;;;;;5137513;28;20482;-68
2023/12/17 05:56:41;;;;;;;15.83;13.77;;;7.10;99.90;;;;;;5137866;27;20450;-68
2023/12/17 05:59:08;;;;;;;21.03;14.30;;;7.10;99.90;;;;;;5137974;28;20454;-67
2023/12/17 06:01:36;;;;;;;17.93;13.50;;;7.10;99.90;;;;;;5137929;28;20770;-70
2023/12/17 06:04:03;;;;;;;17.50;14.50;;;7.10;99.90;;;;;;5141884;27;20460;-67
2023/12/17 06:06:32;;;;;;;17.93;13.80;;;7.10;99.90;;;;;;5141524;27;20459;-67
2023/12/17 06:08:59;;;;;;;16.50;12.63;;;7.10;99.90;;;;;;5141405;27;20569;-68
2023/12/17 06:11:26;;;;;;;17.53;13.70;;;7.10;99.90;;;;;;5141653;27;20548;-67
2023/12/17 06:13:53;;;;;;;17.87;13.27;;;7.10;99.90;;;;;;5141490;27;20830;-68
2023/12/17 06:16:21;;;;;;;14.30;10.97;;;7.00;99.90;;;;;;5141627;27;20455;-66
2023/12/17 06:18:50;;;;;;;12.93;11.00;;;7.10;99.90;;;;;;5141013;27;20479;-66
2023/12/17 06:21:24;;;;;;;13.63;10.37;;;7.10;99.90;;;;;;5141231;27;20467;-67
2023/12/17 06:23:57;;;;;;;12.50;10.50;;;7.10;99.90;;;;;;5141526;27;20461;-67
2023/12/17 06:26:25;;;;;;;14.00;10.87;;;7.10;99.90;;;;;;5141616;27;20888;-69
2023/12/17 06:28:52;;;;;;;15.47;10.67;;;7.10;99.90;;;;;;5141315;27;20458;-68
2023/12/17 06:31:20;;;;;;;13.13;10.33;;;7.00;99.90;;;;;;5141623;27;20461;-69
2023/12/17 06:33:47;;;;;;;12.93;9.83;;;7.10;99.90;;;;;;5142015;27;20541;-67
2023/12/17 06:36:14;;;;;;;15.13;9.80;;;7.10;99.90;;;;;;5141646;27;20467;-67
2023/12/17 06:38:41;;;;;;;13.13;9.63;;;7.00;99.90;;;;;;5141084;27;20903;-68
2023/12/17 06:41:10;;;;;;;13.07;9.20;;;7.10;99.90;;;;;;5141212;27;20914;-67
2023/12/17 06:43:37;;;;;;;11.67;9.53;;;7.00;99.90;;;;;;5141103;27;20969;-67
2023/12/17 06:46:06;;;;;;;12.10;10.00;;;7.00;99.90;;;;;;5141392;27;20931;-68
2023/12/17 06:48:34;;;;;;;12.50;9.13;;;7.00;99.90;;;;;;5140837;27;20455;-67
2023/12/17 06:51:01;;;;;;;14.80;10.53;;;7.10;99.90;;;;;;5140949;27;20914;-68
2023/12/17 06:53:28;;;;;;;13.90;10.03;;;7.00;99.90;;;;;;5141220;27;20491;-67
2023/12/17 06:55:56;;;;;;;12.73;10.37;;;7.00;99.90;;;;;;5140485;27;20910;-67
2023/12/17 06:58:24;;;;;;;15.37;11.97;;;7.10;99.90;;;;;;5140490;27;20477;-67
2023/12/17 07:00:52;;;;;;;12.30;10.63;;;7.10;99.90;;;;;;5140621;27;20884;-68
2023/12/17 07:03:19;;;;;;;12.90;11.23;;;7.10;99.90;;;;;;5140960;27;20915;-68
2023/12/17 07:05:47;;;;;;;14.10;10.93;;;7.10;99.90;;;;;;5140696;27;20507;-67
2023/12/17 07:08:14;;;;;;;13.40;11.17;;;7.00;99.90;;;;;;5140556;27;20478;-67
2023/12/17 07:10:41;;;;;;;17.40;12.33;;;7.10;99.90;;;;;;5140564;27;20738;-68
2023/12/17 07:13:08;;;;;;;15.60;12.90;;;7.10;99.90;;;;;;5140393;27;20490;-67
2023/12/17 07:15:37;;;;;;;16.87;13.17;;;7.10;99.90;;;;;;5140162;27;20528;-67
2023/12/17 07:18:05;;;;;;;17.00;14.20;;;7.10;99.90;;;;;;5140599;27;20458;-67
2023/12/17 07:20:32;;;;;;;15.50;13.90;;;7.10;99.90;;;;;;5140281;27;20549;-67
2023/12/17 07:22:59;;;;;;;15.33;13.87;;;7.00;99.90;;;;;;5140163;27;20902;-67
2023/12/17 07:25:27;;;;;;;17.13;14.63;;;7.00;99.90;;;;;;5140213;27;20499;-67
2023/12/17 07:27:54;;;;;;;16.63;14.20;;;7.00;99.90;;;;;;5140406;27;20457;-67
2023/12/17 07:30:22;;;;;;;17.60;15.00;;;7.00;99.90;;;;;;5139662;27;20429;-67
2023/12/17 07:32:50;;;;;;;14.53;11.70;;;7.00;99.90;;;;;;5140053;27;20579;-67
2023/12/17 07:35:18;;;;;;;12.20;10.50;;;7.10;99.90;;;;;;5140098;27;20501;-67
2023/12/17 07:37:45;;;;;;;14.30;12.80;;;7.00;99.90;;;;;;5140057;27;20942;-67
2023/12/17 07:40:13;;;;;;;15.37;13.73;;;7.00;99.90;;;;;;5140041;27;20495;-66
2023/12/17 07:42:40;;;;;;;14.00;12.47;;;7.00;99.90;;;;;;5139825;27;20493;-67
2023/12/17 07:45:09;;;;;;;14.93;13.20;;;7.00;99.90;;;;;;5139957;27;20493;-67
2023/12/17 07:47:36;;;;;;;13.60;12.20;;;7.00;99.90;;;;;;5139758;27;20482;-67
2023/12/17 07:50:08;;;;;;;11.90;10.70;;;7.00;99.90;;;;;;5139833;27;20529;-67
2023/12/17 07:52:35;;;;;;;12.87;11.63;;;7.00;99.90;;;;;;5139367;27;20459;-68
2023/12/17 07:55:02;;;;;;;19.43;17.60;;;7.00;99.90;;;;;;5139502;27;20442;-68
2023/12/17 07:57:29;;;;;;;13.83;12.33;;;7.00;99.90;;;;;;5139618;27;20741;-67
2023/12/17 07:59:57;;;;;;;17.57;15.67;;;7.00;99.90;;;;;;5139767;27;20545;-67
2023/12/17 08:02:24;;;;;;;13.93;12.53;;;7.10;99.90;;;;;;5139261;27;20496;-68
2023/12/17 08:04:51;;;;;;;13.33;11.80;;;7.00;99.90;;;;;;5139217;27;20573;-68
2023/12/17 08:07:20;;;;;;;10.50;8.80;;;7.10;99.90;;;;;;5138876;27;20458;-68
2023/12/17 08:09:47;;;;;;;11.70;10.50;;;7.10;99.90;;;;;;5139795;27;20511;-67
2023/12/17 08:12:14;;;;;;;13.47;9.30;;;7.10;99.90;;;;;;5138886;27;20451;-68
2023/12/17 08:14:42;;;;;;;10.67;8.57;;;7.00;99.90;;;;;;5139194;27;20906;-67
2023/12/17 08:17:10;;;;;;;9.17;8.10;;;7.00;99.90;;;;;;5139035;27;20511;-67
2023/12/17 08:19:38;;;;;;;9.43;8.30;;;7.00;99.90;;;;;;5139448;27;20459;-67
2023/12/17 08:22:07;;;;;;;9.93;8.93;;;7.00;99.90;;;;;;5139591;27;20465;-67
2023/12/17 08:24:36;;;;;;;9.50;8.50;;;7.00;99.90;;;;;;5139234;27;20874;-68
2023/12/17 08:27:04;;;;;;;10.70;9.23;;;7.00;99.90;;;;;;5137714;27;20839;-67
2023/12/17 08:29:31;;;;;;;10.27;8.80;;;7.00;99.90;;;;;;5139415;27;20458;-67
2023/12/17 08:31:58;;;;;;;13.70;10.80;;;7.10;99.90;;;;;;5138003;27;20497;-67
2023/12/17 08:34:28;;;;;;;19.10;14.53;;;7.10;99.90;;;;;;5136908;27;20511;-67
2023/12/17 08:36:56;;;;;;;22.77;17.60;;;7.20;99.90;;;;;;5137206;27;20487;-68
2023/12/17 08:39:25;;;;;;;18.33;14.10;;;7.20;99.90;;;;;;5137461;27;20459;-67
2023/12/17 08:41:54;;;;;;;13.80;9.93;;;7.10;99.90;;;;;;5137972;27;20490;-67
2023/12/17 08:44:23;;;;;;;13.80;10.70;;;7.20;99.90;;;;;;5137152;27;20512;-67
2023/12/17 08:46:51;;;;;;;14.70;11.40;;;7.20;99.90;;;;;;5138146;27;20808;-67
2023/12/17 08:49:18;;;;;;;13.20;11.10;;;7.10;99.90;;;;;;5138857;27;20469;-67
2023/12/17 08:51:46;;;;;;;15.60;13.63;;;7.00;99.90;;;;;;5137304;27;20452;-67
2023/12/17 08:54:13;;;;;;;12.87;11.23;;;7.00;99.90;;;;;;5137398;27;20450;-67
2023/12/17 08:56:41;;;;;;;14.00;11.90;;;7.00;99.90;;;;;;5136954;27;20498;-67
2023/12/17 08:59:10;;;;;;;15.10;12.70;;;7.00;99.90;;;;;;5137183;27;20443;-67
2023/12/17 09:01:37;;;;;;;14.43;12.93;;;7.10;99.90;;;;;;5136793;27;20493;-68
2023/12/17 09:04:04;;;;;;;19.07;15.80;;;7.10;99.90;;;;;;5136998;27;20531;-67
2023/12/17 09:06:32;;;;;;;22.17;18.53;;;7.10;99.90;;;;;;5137683;27;20876;-67
2023/12/17 09:08:59;;;;;;;19.57;16.20;;;7.10;99.90;;;;;;5136615;27;20578;-67
2023/12/17 09:11:26;;;;;;;18.57;15.00;;;7.10;99.90;;;;;;5137079;27;20891;-67
2023/12/17 09:13:53;;;;;;;20.23;17.57;;;7.10;99.90;;;;;;5136367;27;20469;-67
2023/12/17 09:16:22;;;;;;;18.17;14.77;;;7.20;99.90;;;;;;5136496;27;20433;-67
2023/12/17 09:18:50;;;;;;;21.03;14.80;;;7.30;99.90;;;;;;5136629;27;20766;-66
2023/12/17 09:21:17;;;;;;;18.03;14.03;;;7.20;99.90;;;;;;5136340;27;20461;-67
2023/12/17 09:23:44;;;;;;;19.30;15.43;;;7.20;99.90;;;;;;5137269;27;20491;-67
2023/12/17 09:26:12;;;;;;;18.33;14.43;;;7.20;99.90;;;;;;5138639;28;20468;-67
2023/12/17 09:28:39;;;;;;;21.50;16.87;;;7.20;99.90;;;;;;5138375;28;20463;-67
2023/12/17 09:31:08;;;;;;;16.93;13.77;;;7.30;99.90;;;;;;5138255;27;20470;-66
2023/12/17 09:33:38;;;;;;;19.63;14.00;;;7.30;99.90;;;;;;5138269;27;20545;-67
2023/12/17 09:36:07;;;;;;;14.73;12.10;;;7.30;99.90;;;;;;5138643;27;20726;-66
2023/12/17 09:38:34;;;;;;;16.70;13.80;;;7.30;99.90;;;;;;5140963;27;20469;-66
2023/12/17 09:41:01;;;;;;;16.67;13.07;;;7.20;99.90;;;;;;5142424;27;20765;-66
2023/12/17 09:43:29;;;;;;;18.33;14.73;;;7.30;99.90;;;;;;5142238;27;20552;-66
2023/12/17 09:45:56;;;;;;;21.23;16.00;;;7.30;99.90;;;;;;5142552;27;20591;-66
2023/12/17 09:48:24;;;;;;;19.37;16.03;;;7.30;99.90;;;;;;5142402;27;20503;-66
2023/12/17 09:50:52;;;;;;;20.70;16.30;;;7.30;99.90;;;;;;5141941;27;20450;-67
2023/12/17 09:53:21;;;;;;;23.10;17.13;;;7.30;99.90;;;;;;5142315;27;20459;-66
2023/12/17 09:55:49;;;;;;;22.90;16.40;;;7.30;99.90;;;;;;5140963;27;20476;-66
2023/12/17 09:58:16;;;;;;;19.53;15.70;;;7.30;99.90;;;;;;5139156;27;20532;-66
2023/12/17 10:00:44;;;;;;;20.87;16.00;;;7.30;99.90;;;;;;5140136;27;20461;-64
2023/12/17 10:03:14;;;;;;;23.07;17.00;;;7.30;99.90;;;;;;5137574;27;20536;-66
2023/12/17 10:05:42;;;;;;;18.27;14.60;;;7.30;99.90;;;;;;5140185;27;20497;-66
2023/12/17 10:08:11;;;;;;;20.70;15.47;;;7.30;99.90;;;;;;5139819;27;20486;-66
2023/12/17 10:10:38;;;;;;;20.40;15.47;;;7.30;99.90;;;;;;5141501;27;20462;-65
2023/12/17 10:13:05;;;;;;;20.00;14.80;;;7.40;99.90;;;;;;5140780;27;20534;-66
2023/12/17 10:15:37;;;;;;;16.37;13.20;;;7.30;99.90;;;;;;5140953;27;20465;-65
2023/12/17 10:18:05;;;;;;;19.97;15.10;;;7.40;99.90;;;;;;5141760;27;20437;-65
2023/12/17 10:20:32;;;;;;;17.80;13.10;;;7.40;99.90;;;;;;5141306;27;20526;-66
2023/12/17 10:23:02;;;;;;;13.97;12.07;;;7.50;99.90;;;;;;5141308;27;20497;-66
2023/12/17 10:25:31;;;;;;;17.10;14.63;;;7.50;99.90;;;;;;5140954;27;20934;-65
2023/12/17 10:27:59;;;;;;;16.33;12.57;;;7.50;99.90;;;;;;5141881;27;20733;-66
2023/12/17 10:30:31;;;;;;;14.67;12.63;;;7.50;99.90;;;;;;5141278;27;20923;-66
2023/12/17 10:32:59;;;;;;;14.17;11.70;;;7.60;99.90;;;;;;5141620;27;20493;-66
2023/12/17 10:35:27;;;;;;;11.93;10.53;;;7.60;99.90;;;;;;5141052;27;20969;-66
2023/12/17 10:37:59;;;;;;;13.80;10.83;;;7.50;99.90;;;;;;5141288;27;20549;-65
2023/12/17 10:40:27;;;;;;;14.03;12.13;;;7.50;99.90;;;;;;5140884;27;20524;-65
2023/12/17 10:42:57;;;;;;;18.50;12.50;;;7.50;99.90;;;;;;5129096;27;20471;-65
2023/12/17 10:45:25;;;;;;;30.43;21.17;;;7.60;99.90;;;;;;5120613;28;20819;-65
2023/12/17 10:47:56;;;;;;;16.33;13.27;;;7.50;99.90;;;;;;5120615;28;20463;-65
2023/12/17 10:50:24;;;;;;;12.60;10.10;;;7.50;99.90;;;;;;5119153;28;20762;-65
2023/12/17 10:52:52;;;;;;;14.73;11.17;;;7.50;99.90;;;;;;5120565;28;20495;-65
2023/12/17 10:55:20;;;;;;;11.73;9.30;;;7.60;99.90;;;;;;5120433;28;20585;-64
2023/12/17 10:57:55;;;;;;;11.40;9.17;;;7.60;99.90;;;;;;5120438;28;20459;-65
2023/12/17 11:00:27;;;;;;;10.27;8.50;;;7.60;99.90;;;;;;5119600;28;20493;-66
2023/12/17 11:02:59;;;;;;;9.97;8.17;;;7.60;99.90;;;;;;5118676;28;20493;-65
2023/12/17 11:05:27;;;;;;;8.37;7.47;;;7.60;99.90;;;;;;5118421;28;20493;-64
2023/12/17 11:07:54;;;;;;;9.83;8.77;;;7.50;99.90;;;;;;5118695;28;20487;-64
2023/12/17 11:10:23;;;;;;;8.87;7.97;;;7.50;99.90;;;;;;5118918;28;20480;-65
2023/12/17 11:12:51;;;;;;;10.17;8.90;;;7.60;99.90;;;;;;5119440;28;20896;-64
2023/12/17 11:15:22;;;;;;;13.60;9.40;;;7.70;99.90;;;;;;5119939;28;20455;-63
2023/12/17 11:17:54;;;;;;;10.60;8.60;;;7.70;99.90;;;;;;5119982;28;20462;-63
2023/12/17 11:20:22;;;;;;;11.00;9.20;;;7.80;99.90;;;;;;5119510;28;20955;-63
2023/12/17 11:22:49;;;;;;;11.60;10.20;;;7.80;99.90;;;;;;5119835;28;20463;-63
2023/12/17 11:25:16;;;;;;;11.07;9.70;;;7.90;99.90;;;;;;5119838;28;20552;-63
2023/12/17 11:27:46;;;;;;;12.43;10.03;;;7.90;99.90;;;;;;5119293;28;20558;-63
2023/12/17 11:30:29;;;;;;;11.50;10.40;;;7.90;99.90;;;;;;5120105;28;20467;-65
2023/12/17 11:32:59;;;;;;;12.73;10.47;;;7.90;99.90;;;;;;5119255;28;20752;-63
2023/12/17 11:35:28;;;;;;;13.23;11.90;;;7.90;99.90;;;;;;5119890;28;20487;-62
2023/12/17 11:37:56;;;;;;;13.10;11.67;;;8.00;99.90;;;;;;5119508;28;20461;-63
2023/12/17 11:40:24;;;;;;;13.13;11.47;;;8.00;99.90;;;;;;5119183;28;20538;-63
2023/12/17 11:42:59;;;;;;;14.63;12.43;;;8.00;99.90;;;;;;5119246;28;20504;-63
2023/12/17 11:45:36;;;;;;;14.70;13.03;;;8.00;99.90;;;;;;5119737;28;20487;-64
2023/12/17 11:48:15;;;;;;;15.03;12.93;;;8.00;99.90;;;;;;5128851;27;20490;-64
2023/12/17 11:50:45;;;;;;;14.87;13.23;;;7.90;99.90;;;;;;5137491;27;20463;-63
2023/12/17 11:53:13;;;;;;;12.83;11.53;;;7.80;99.90;;;;;;5138263;27;20461;-63
2023/12/17 11:55:45;;;;;;;18.37;13.70;;;7.90;99.90;;;;;;5138325;27;20450;-63
2023/12/17 11:58:15;;;;;;;18.90;15.13;;;7.90;99.90;;;;;;5138065;27;20455;-63
2023/12/17 12:00:44;;;;;;;15.40;13.30;;;8.00;99.90;;;;;;5137721;27;20458;-63
2023/12/17 12:03:12;;;;;;;15.00;13.37;;;7.90;99.90;;;;;;5138142;27;20459;-63
2023/12/17 12:05:40;;;;;;;16.10;14.13;;;8.00;99.90;;;;;;5137410;27;20958;-63
2023/12/17 12:08:08;;;;;;;15.43;13.23;;;8.00;99.90;;;;;;5137420;27;20490;-62
2023/12/17 12:10:36;;;;;;;15.97;14.17;;;7.90;99.90;;;;;;5137294;27;20487;-63
2023/12/17 12:13:04;;;;;;;17.63;14.67;;;7.90;99.90;;;;;;5136793;27;20455;-63
2023/12/17 12:15:32;;;;;;;16.80;14.67;;;8.00;99.90;;;;;;5132309;27;20485;-63
2023/12/17 12:18:00;;;;;;;17.80;15.90;;;8.00;99.90;;;;;;5137131;27;20790;-63
2023/12/17 12:20:38;;;;;;;17.80;15.90;;;8.00;99.90;;;;;;5137237;27;20499;-62
2023/12/17 12:23:13;;;;;;;17.67;14.60;;;8.00;99.90;;;;;;5136288;27;20943;-63
2023/12/17 12:25:41;;;;;;;15.90;14.20;;;8.00;99.90;;;;;;5137870;27;20750;-63
2023/12/17 12:28:16;;;;;;;18.00;15.27;;;8.10;99.90;;;;;;5137273;27;20455;-63
2023/12/17 12:30:44;;;;;;;17.30;14.60;;;8.10;99.90;;;;;;5137213;27;20458;-65
2023/12/17 12:33:12;;;;;;;19.20;16.57;;;8.10;99.90;;;;;;5137442;27;20437;-64
2023/12/17 12:35:42;;;;;;;18.47;16.47;;;8.10;99.90;;;;;;5137542;27;20459;-64
2023/12/17 12:38:23;;;;;;;22.57;18.07;;;8.00;99.90;;;;;;5137671;27;20904;-63
2023/12/17 12:40:51;;;;;;;21.90;17.83;;;8.00;99.90;;;;;;5137578;27;20429;-63
2023/12/17 12:43:21;;;;;;;23.80;19.23;;;7.90;99.90;;;;;;5136865;27;20910;-62